createdAt,value
2018-06-21T00:00:42.373Z,1012.00
2018-06-21T00:01:42.377Z,1012.00
2018-06-21T00:02:42.356Z,1012.02
2018-06-21T00:03:42.368Z,1012.02
2018-06-21T00:04:42.361Z,1012.02
2018-06-21T00:05:42.367Z,1011.98
2018-06-21T00:06:42.370Z,1011.98
2018-06-21T00:07:42.394Z,1011.99
2018-06-21T00:08:42.399Z,1011.98
2018-06-21T00:09:42.597Z,1011.98
2018-06-21T00:10:42.393Z,1011.94
2018-06-21T00:11:42.402Z,1011.92
2018-06-21T00:12:42.400Z,1011.92
2018-06-21T00:13:42.404Z,1011.92
2018-06-21T00:14:42.598Z,1011.91
2018-06-21T00:15:42.615Z,1011.91
2018-06-21T00:16:42.416Z,1011.91
2018-06-21T00:17:42.620Z,1011.87
2018-06-21T00:18:42.409Z,1011.85
2018-06-21T00:19:42.413Z,1011.80
2018-06-21T00:20:42.434Z,1011.79
2018-06-21T00:21:42.420Z,1011.80
2018-06-21T00:22:42.437Z,1011.81
2018-06-21T00:23:42.458Z,1011.80
2018-06-21T00:24:42.442Z,1011.79
2018-06-21T00:25:42.432Z,1011.80
2018-06-21T00:26:42.464Z,1011.76
2018-06-21T00:27:42.467Z,1011.77
2018-06-21T00:28:42.443Z,1011.75
2018-06-21T00:29:42.466Z,1011.75
2018-06-21T00:30:42.452Z,1011.76
2018-06-21T00:31:42.669Z,1011.75
2018-06-21T00:32:42.472Z,1011.76
2018-06-21T00:33:42.480Z,1011.76
2018-06-21T00:34:42.465Z,1011.78
2018-06-21T00:35:42.468Z,1011.80
2018-06-21T00:36:42.474Z,1011.77
2018-06-21T00:37:42.691Z,1011.78
2018-06-21T00:38:42.480Z,1011.73
2018-06-21T00:39:42.486Z,1011.78
2018-06-21T00:40:42.489Z,1011.77
2018-06-21T00:41:42.490Z,1011.78
2018-06-21T00:42:42.496Z,1011.77
2018-06-21T00:43:42.497Z,1011.75
2018-06-21T00:44:42.499Z,1011.76
2018-06-21T00:45:42.513Z,1011.74
2018-06-21T00:46:42.507Z,1011.73
2018-06-21T00:47:42.524Z,1011.72
2018-06-21T00:48:42.527Z,1011.74
2018-06-21T00:49:42.517Z,1011.73
2018-06-21T00:50:42.548Z,1011.76
2018-06-21T00:51:42.521Z,1011.74
2018-06-21T00:52:42.540Z,1011.72
2018-06-21T00:53:42.533Z,1011.71
2018-06-21T00:54:42.544Z,1011.74
2018-06-21T00:55:42.534Z,1011.70
2018-06-21T00:56:42.552Z,1011.68
2018-06-21T00:57:42.552Z,1011.69
2018-06-21T00:58:42.545Z,1011.70
2018-06-21T00:59:42.547Z,1011.69
2018-06-21T01:00:42.565Z,1011.69
2018-06-21T01:01:42.572Z,1011.67
2018-06-21T01:02:42.564Z,1011.63
2018-06-21T01:03:42.572Z,1011.64
2018-06-21T01:04:42.564Z,1011.63
2018-06-21T01:05:42.580Z,1011.65
2018-06-21T01:06:42.585Z,1011.59
2018-06-21T01:07:42.576Z,1011.58
2018-06-21T01:08:42.577Z,1011.60
2018-06-21T01:09:42.580Z,1011.56
2018-06-21T01:10:42.613Z,1011.57
2018-06-21T01:11:42.617Z,1011.55
2018-06-21T01:12:42.590Z,1011.58
2018-06-21T01:13:42.595Z,1011.54
2018-06-21T01:14:42.596Z,1011.54
2018-06-21T01:15:42.614Z,1011.52
2018-06-21T01:16:42.611Z,1011.50
2018-06-21T01:17:42.616Z,1011.52
2018-06-21T01:18:42.621Z,1011.50
2018-06-21T01:19:42.611Z,1011.47
2018-06-21T01:20:42.614Z,1011.46
2018-06-21T01:21:42.642Z,1011.46
2018-06-21T01:22:42.630Z,1011.45
2018-06-21T01:23:42.623Z,1011.41
2018-06-21T01:24:42.623Z,1011.38
2018-06-21T01:25:42.831Z,1011.38
2018-06-21T01:26:42.647Z,1011.41
2018-06-21T01:27:42.635Z,1011.36
2018-06-21T01:28:42.648Z,1011.36
2018-06-21T01:29:42.656Z,1011.31
2018-06-21T01:30:42.643Z,1011.31
2018-06-21T01:31:42.646Z,1011.30
2018-06-21T01:32:42.662Z,1011.26
2018-06-21T01:33:42.682Z,1011.25
2018-06-21T01:34:42.655Z,1011.24
2018-06-21T01:35:42.871Z,1011.21
2018-06-21T01:36:42.662Z,1011.18
2018-06-21T01:37:42.677Z,1011.15
2018-06-21T01:38:42.687Z,1011.15
2018-06-21T01:39:42.671Z,1011.09
2018-06-21T01:40:42.685Z,1011.11
2018-06-21T01:41:42.697Z,1011.09
2018-06-21T01:42:42.679Z,1011.04
2018-06-21T01:43:42.683Z,1011.05
2018-06-21T01:44:42.701Z,1011.02
2018-06-21T01:45:42.907Z,1011.02
2018-06-21T01:46:42.691Z,1010.94
2018-06-21T01:47:42.693Z,1010.98
2018-06-21T01:48:42.703Z,1011.01
2018-06-21T01:49:42.728Z,1011.00
2018-06-21T01:50:42.705Z,1010.95
2018-06-21T01:51:42.722Z,1010.96
2018-06-21T01:52:42.708Z,1010.93
2018-06-21T01:53:42.725Z,1010.91
2018-06-21T01:54:42.714Z,1010.89
2018-06-21T01:55:42.716Z,1010.89
2018-06-21T01:56:42.719Z,1010.86
2018-06-21T01:57:42.927Z,1010.82
2018-06-21T01:58:42.727Z,1010.81
2018-06-21T01:59:42.729Z,1010.83
2018-06-21T02:00:42.743Z,1010.80
2018-06-21T02:01:42.744Z,1010.77
2018-06-21T02:02:42.749Z,1010.81
2018-06-21T02:03:42.737Z,1010.78
2018-06-21T02:04:42.751Z,1010.76
2018-06-21T02:05:42.770Z,1010.81
2018-06-21T02:06:42.963Z,1010.77
2018-06-21T02:07:42.760Z,1010.71
2018-06-21T02:08:42.775Z,1010.72
2018-06-21T02:09:42.766Z,1010.71
2018-06-21T02:10:42.760Z,1010.73
2018-06-21T02:11:42.769Z,1010.77
2018-06-21T02:12:42.987Z,1010.68
2018-06-21T02:13:42.763Z,1010.66
2018-06-21T02:14:42.778Z,1010.66
2018-06-21T02:15:42.983Z,1010.64
2018-06-21T02:16:42.772Z,1010.64
2018-06-21T02:17:42.774Z,1010.66
2018-06-21T02:18:42.793Z,1010.67
2018-06-21T02:19:42.995Z,1010.64
2018-06-21T02:20:42.791Z,1010.65
2018-06-21T02:21:42.810Z,1010.62
2018-06-21T02:22:42.816Z,1010.59
2018-06-21T02:23:42.825Z,1010.58
2018-06-21T02:24:42.791Z,1010.57
2018-06-21T02:25:42.818Z,1010.57
2018-06-21T02:26:43.000Z,1010.57
2018-06-21T02:27:43.002Z,1010.59
2018-06-21T02:28:42.816Z,1010.57
2018-06-21T02:29:42.805Z,1010.58
2018-06-21T02:30:42.804Z,1010.56
2018-06-21T02:31:43.015Z,1010.53
2018-06-21T02:32:42.813Z,1010.53
2018-06-21T02:33:42.813Z,1010.54
2018-06-21T02:34:43.022Z,1010.56
2018-06-21T02:35:42.834Z,1010.53
2018-06-21T02:36:42.835Z,1010.52
2018-06-21T02:37:42.823Z,1010.51
2018-06-21T02:38:42.831Z,1010.52
2018-06-21T02:39:42.843Z,1010.59
2018-06-21T02:40:42.832Z,1010.55
2018-06-21T02:41:42.846Z,1010.58
2018-06-21T02:42:42.840Z,1010.56
2018-06-21T02:43:43.054Z,1010.53
2018-06-21T02:44:42.860Z,1010.57
2018-06-21T02:45:42.857Z,1010.52
2018-06-21T02:46:42.846Z,1010.56
2018-06-21T02:47:42.859Z,1010.53
2018-06-21T02:48:42.859Z,1010.52
2018-06-21T02:49:42.849Z,1010.54
2018-06-21T02:50:42.853Z,1010.51
2018-06-21T02:51:42.855Z,1010.52
2018-06-21T02:52:42.872Z,1010.53
2018-06-21T02:53:42.862Z,1010.57
2018-06-21T02:54:42.874Z,1010.53
2018-06-21T02:55:42.864Z,1010.51
2018-06-21T02:56:42.876Z,1010.47
2018-06-21T02:57:43.086Z,1010.48
2018-06-21T02:58:42.886Z,1010.48
2018-06-21T02:59:42.876Z,1010.49
2018-06-21T03:00:43.078Z,1010.50
2018-06-21T03:01:42.877Z,1010.47
2018-06-21T03:02:42.888Z,1010.48
2018-06-21T03:03:42.919Z,1010.49
2018-06-21T03:04:42.894Z,1010.48
2018-06-21T03:05:42.888Z,1010.50
2018-06-21T03:06:42.890Z,1010.51
2018-06-21T03:07:42.915Z,1010.52
2018-06-21T03:08:42.921Z,1010.52
2018-06-21T03:09:42.911Z,1010.48
2018-06-21T03:10:42.897Z,1010.48
2018-06-21T03:11:42.902Z,1010.48
2018-06-21T03:12:42.901Z,1010.47
2018-06-21T03:13:42.907Z,1010.49
2018-06-21T03:14:42.921Z,1010.46
2018-06-21T03:15:42.908Z,1010.51
2018-06-21T03:16:42.922Z,1010.47
2018-06-21T03:17:42.945Z,1010.51
2018-06-21T03:18:42.918Z,1010.51
2018-06-21T03:19:42.923Z,1010.52
2018-06-21T03:20:42.922Z,1010.53
2018-06-21T03:21:42.921Z,1010.50
2018-06-21T03:22:42.946Z,1010.55
2018-06-21T03:23:43.129Z,1010.53
2018-06-21T03:24:42.928Z,1010.56
2018-06-21T03:25:42.944Z,1010.56
2018-06-21T03:26:42.962Z,1010.56
2018-06-21T03:27:42.963Z,1010.55
2018-06-21T03:28:42.952Z,1010.55
2018-06-21T03:29:42.943Z,1010.54
2018-06-21T03:30:43.149Z,1010.50
2018-06-21T03:31:42.943Z,1010.50
2018-06-21T03:32:42.961Z,1010.46
2018-06-21T03:33:42.960Z,1010.47
2018-06-21T03:34:42.977Z,1010.44
2018-06-21T03:35:42.976Z,1010.42
2018-06-21T03:36:42.969Z,1010.43
2018-06-21T03:37:42.956Z,1010.40
2018-06-21T03:38:42.972Z,1010.40
2018-06-21T03:39:42.962Z,1010.37
2018-06-21T03:40:42.965Z,1010.38
2018-06-21T03:41:42.965Z,1010.38
2018-06-21T03:42:42.984Z,1010.36
2018-06-21T03:43:42.972Z,1010.38
2018-06-21T03:44:42.971Z,1010.41
2018-06-21T03:45:43.189Z,1010.41
2018-06-21T03:46:43.190Z,1010.36
2018-06-21T03:47:42.982Z,1010.37
2018-06-21T03:48:43.003Z,1010.37
2018-06-21T03:49:42.995Z,1010.32
2018-06-21T03:50:42.998Z,1010.31
2018-06-21T03:51:42.991Z,1010.33
2018-06-21T03:52:43.021Z,1010.29
2018-06-21T03:53:42.995Z,1010.28
2018-06-21T03:54:42.998Z,1010.21
2018-06-21T03:55:43.014Z,1010.25
2018-06-21T03:56:43.012Z,1010.22
2018-06-21T03:57:43.019Z,1010.20
2018-06-21T03:58:43.022Z,1010.19
2018-06-21T03:59:43.009Z,1010.18
2018-06-21T04:00:43.026Z,1010.13
2018-06-21T04:01:43.015Z,1010.13
2018-06-21T04:02:43.043Z,1010.15
2018-06-21T04:03:43.021Z,1010.20
2018-06-21T04:04:43.025Z,1010.20
2018-06-21T04:05:43.041Z,1010.23
2018-06-21T04:06:43.031Z,1010.26
2018-06-21T04:07:43.035Z,1010.23
2018-06-21T04:08:43.051Z,1010.21
2018-06-21T04:09:43.066Z,1010.26
2018-06-21T04:10:43.049Z,1010.24
2018-06-21T04:11:43.056Z,1010.25
2018-06-21T04:12:43.045Z,1010.20
2018-06-21T04:13:43.073Z,1010.25
2018-06-21T04:14:43.061Z,1010.26
2018-06-21T04:15:43.058Z,1010.27
2018-06-21T04:16:43.262Z,1010.24
2018-06-21T04:17:43.071Z,1010.26
2018-06-21T04:18:43.065Z,1010.26
2018-06-21T04:19:43.068Z,1010.26
2018-06-21T04:20:43.081Z,1010.27
2018-06-21T04:21:43.073Z,1010.27
2018-06-21T04:22:43.290Z,1010.27
2018-06-21T04:23:43.078Z,1010.32
2018-06-21T04:24:43.093Z,1010.29
2018-06-21T04:25:43.098Z,1010.29
2018-06-21T04:26:43.289Z,1010.34
2018-06-21T04:27:43.091Z,1010.34
2018-06-21T04:28:43.096Z,1010.42
2018-06-21T04:29:43.499Z,1010.36
2018-06-21T04:30:43.312Z,1010.34
2018-06-21T04:31:43.118Z,1010.29
2018-06-21T04:32:43.117Z,1010.28
2018-06-21T04:33:43.109Z,1010.25
2018-06-21T04:34:43.109Z,1010.25
2018-06-21T04:35:43.110Z,1010.26
2018-06-21T04:36:43.114Z,1010.24
2018-06-21T04:37:43.132Z,1010.29
2018-06-21T04:38:43.130Z,1010.31
2018-06-21T04:39:43.340Z,1010.32
2018-06-21T04:40:43.138Z,1010.30
2018-06-21T04:41:43.128Z,1010.22
2018-06-21T04:42:43.128Z,1010.26
2018-06-21T04:43:43.138Z,1010.29
2018-06-21T04:44:43.148Z,1010.24
2018-06-21T04:45:43.151Z,1010.32
2018-06-21T04:46:43.351Z,1010.30
2018-06-21T04:47:43.142Z,1010.33
2018-06-21T04:48:43.147Z,1010.29
2018-06-21T04:49:43.162Z,1010.24
2018-06-21T04:50:43.150Z,1010.23
2018-06-21T04:51:43.163Z,1010.23
2018-06-21T04:52:43.182Z,1010.23
2018-06-21T04:53:43.171Z,1010.23
2018-06-21T04:54:43.183Z,1010.24
2018-06-21T04:55:43.163Z,1010.14
2018-06-21T04:56:43.180Z,1010.10
2018-06-21T04:57:43.173Z,1010.12
2018-06-21T04:58:43.184Z,1010.13
2018-06-21T04:59:43.173Z,1010.14
2018-06-21T05:00:43.391Z,1010.14
2018-06-21T05:01:43.192Z,1010.18
2018-06-21T05:02:43.192Z,1010.21
2018-06-21T05:03:43.191Z,1010.28
2018-06-21T05:04:43.187Z,1010.24
2018-06-21T05:05:43.189Z,1010.26
2018-06-21T05:06:43.404Z,1010.29
2018-06-21T05:07:43.200Z,1010.30
2018-06-21T05:08:43.400Z,1010.25
2018-06-21T05:09:43.422Z,1010.27
2018-06-21T05:10:43.205Z,1010.24
2018-06-21T05:11:43.241Z,1010.29
2018-06-21T05:12:43.222Z,1010.30
2018-06-21T05:13:43.224Z,1010.34
2018-06-21T05:14:43.218Z,1010.37
2018-06-21T05:15:43.217Z,1010.37
2018-06-21T05:16:43.219Z,1010.35
2018-06-21T05:17:43.238Z,1010.34
2018-06-21T05:18:43.243Z,1010.39
2018-06-21T05:19:43.229Z,1010.32
2018-06-21T05:20:43.228Z,1010.32
2018-06-21T05:21:43.232Z,1010.38
2018-06-21T05:22:43.237Z,1010.38
2018-06-21T05:23:43.248Z,1010.37
2018-06-21T05:24:43.241Z,1010.36
2018-06-21T05:25:43.242Z,1010.32
2018-06-21T05:26:43.458Z,1010.32
2018-06-21T05:27:43.261Z,1010.27
2018-06-21T05:28:43.251Z,1010.22
2018-06-21T05:29:43.282Z,1010.21
2018-06-21T05:30:43.261Z,1010.22
2018-06-21T05:31:43.258Z,1010.25
2018-06-21T05:32:43.261Z,1010.28
2018-06-21T05:33:43.265Z,1010.27
2018-06-21T05:34:43.313Z,1010.24
2018-06-21T05:35:43.270Z,1010.24
2018-06-21T05:36:43.272Z,1010.26
2018-06-21T05:37:43.280Z,1010.28
2018-06-21T05:38:43.277Z,1010.28
2018-06-21T05:39:43.282Z,1010.37
2018-06-21T05:40:43.488Z,1010.37
2018-06-21T05:41:43.287Z,1010.41
2018-06-21T05:42:43.490Z,1010.41
2018-06-21T05:43:43.289Z,1010.37
2018-06-21T05:44:43.496Z,1010.37
2018-06-21T05:45:43.295Z,1010.33
2018-06-21T05:46:43.299Z,1010.32
2018-06-21T05:47:43.302Z,1010.33
2018-06-21T05:48:43.303Z,1010.29
2018-06-21T05:49:43.366Z,1010.35
2018-06-21T05:50:43.312Z,1010.40
2018-06-21T05:51:43.321Z,1010.35
2018-06-21T05:52:43.314Z,1010.40
2018-06-21T05:53:43.326Z,1010.40
2018-06-21T05:54:43.331Z,1010.37
2018-06-21T05:55:43.526Z,1010.40
2018-06-21T05:56:43.401Z,1010.41
2018-06-21T05:57:43.339Z,1010.47
2018-06-21T05:58:43.330Z,1010.51
2018-06-21T05:59:43.334Z,1010.42
2018-06-21T06:00:43.335Z,1010.39
2018-06-21T06:01:43.339Z,1010.37
2018-06-21T06:02:43.346Z,1010.43
2018-06-21T06:03:43.346Z,1010.47
2018-06-21T06:04:43.357Z,1010.42
2018-06-21T06:05:43.376Z,1010.45
2018-06-21T06:06:43.356Z,1010.39
2018-06-21T06:07:43.368Z,1010.42
2018-06-21T06:08:43.359Z,1010.43
2018-06-21T06:09:43.373Z,1010.49
2018-06-21T06:10:43.373Z,1010.47
2018-06-21T06:11:43.363Z,1010.49
2018-06-21T06:12:43.366Z,1010.50
2018-06-21T06:13:43.369Z,1010.47
2018-06-21T06:14:43.372Z,1010.46
2018-06-21T06:15:43.383Z,1010.47
2018-06-21T06:16:43.388Z,1010.50
2018-06-21T06:17:43.399Z,1010.44
2018-06-21T06:18:43.381Z,1010.46
2018-06-21T06:19:43.383Z,1010.39
2018-06-21T06:20:43.585Z,1010.43
2018-06-21T06:21:43.592Z,1010.46
2018-06-21T06:22:43.393Z,1010.47
2018-06-21T06:23:43.391Z,1010.47
2018-06-21T06:24:43.406Z,1010.54
2018-06-21T06:25:43.619Z,1010.55
2018-06-21T06:26:43.414Z,1010.58
2018-06-21T06:27:43.409Z,1010.64
2018-06-21T06:28:43.506Z,1010.61
2018-06-21T06:29:43.425Z,1010.68
2018-06-21T06:30:43.425Z,1010.73
2018-06-21T06:31:43.421Z,1010.71
2018-06-21T06:32:43.412Z,1010.74
2018-06-21T06:33:43.448Z,1010.74
2018-06-21T06:34:43.503Z,1010.74
2018-06-21T06:35:43.426Z,1010.70
2018-06-21T06:36:43.424Z,1010.70
2018-06-21T06:37:43.638Z,1010.74
2018-06-21T06:38:43.429Z,1010.71
2018-06-21T06:39:43.645Z,1010.66
2018-06-21T06:40:43.451Z,1010.69
2018-06-21T06:41:43.438Z,1010.69
2018-06-21T06:42:43.448Z,1010.75
2018-06-21T06:43:43.468Z,1010.78
2018-06-21T06:44:43.664Z,1010.76
2018-06-21T06:45:43.461Z,1010.79
2018-06-21T06:46:43.451Z,1010.76
2018-06-21T06:47:43.473Z,1010.80
2018-06-21T06:48:43.456Z,1010.80
2018-06-21T06:49:43.472Z,1010.86
2018-06-21T06:50:43.456Z,1010.84
2018-06-21T06:51:43.461Z,1010.84
2018-06-21T06:52:43.469Z,1010.82
2018-06-21T06:53:43.684Z,1010.85
2018-06-21T06:54:43.501Z,1010.89
2018-06-21T06:55:43.474Z,1010.85
2018-06-21T06:56:43.505Z,1010.89
2018-06-21T06:57:43.485Z,1010.92
2018-06-21T06:58:43.476Z,1010.96
2018-06-21T06:59:43.488Z,1010.98
2018-06-21T07:00:43.479Z,1010.96
2018-06-21T07:01:43.483Z,1010.95
2018-06-21T07:02:43.485Z,1010.93
2018-06-21T07:03:43.502Z,1010.93
2018-06-21T07:04:43.489Z,1010.93
2018-06-21T07:05:43.491Z,1010.98
2018-06-21T07:06:43.495Z,1011.00
2018-06-21T07:07:43.494Z,1011.03
2018-06-21T07:08:43.499Z,1011.05
2018-06-21T07:09:43.499Z,1011.09
2018-06-21T07:10:43.506Z,1011.05
2018-06-21T07:11:43.515Z,1011.02
2018-06-21T07:12:43.510Z,1011.00
2018-06-21T07:13:43.510Z,1011.07
2018-06-21T07:14:43.513Z,1011.04
2018-06-21T07:15:43.513Z,1011.11
2018-06-21T07:16:43.516Z,1011.03
2018-06-21T07:17:43.520Z,1011.01
2018-06-21T07:18:43.534Z,1011.01
2018-06-21T07:19:43.521Z,1011.09
2018-06-21T07:20:43.531Z,1011.08
2018-06-21T07:21:43.526Z,1011.11
2018-06-21T07:22:43.528Z,1011.11
2018-06-21T07:23:43.530Z,1011.08
2018-06-21T07:24:43.543Z,1011.14
2018-06-21T07:25:43.536Z,1011.08
2018-06-21T07:26:43.538Z,1011.13
2018-06-21T07:27:43.544Z,1011.22
2018-06-21T07:28:43.540Z,1011.20
2018-06-21T07:29:43.544Z,1011.18
2018-06-21T07:30:43.551Z,1011.15
2018-06-21T07:31:43.760Z,1011.18
2018-06-21T07:32:43.752Z,1011.18
2018-06-21T07:33:43.552Z,1011.21
2018-06-21T07:34:43.570Z,1011.26
2018-06-21T07:35:43.557Z,1011.27
2018-06-21T07:36:43.573Z,1011.28
2018-06-21T07:37:43.559Z,1011.26
2018-06-21T07:38:43.576Z,1011.30
2018-06-21T07:39:43.576Z,1011.26
2018-06-21T07:40:43.567Z,1011.28
2018-06-21T07:41:43.591Z,1011.24
2018-06-21T07:42:43.598Z,1011.26
2018-06-21T07:43:43.572Z,1011.26
2018-06-21T07:44:43.574Z,1011.25
2018-06-21T07:45:43.593Z,1011.33
2018-06-21T07:46:43.587Z,1011.33
2018-06-21T07:47:43.598Z,1011.29
2018-06-21T07:48:43.611Z,1011.32
2018-06-21T07:49:43.588Z,1011.29
2018-06-21T07:50:43.602Z,1011.36
2018-06-21T07:51:43.593Z,1011.47
2018-06-21T07:52:43.606Z,1011.47
2018-06-21T07:53:43.649Z,1011.54
2018-06-21T07:54:43.609Z,1011.59
2018-06-21T07:55:43.806Z,1011.62
2018-06-21T07:56:43.620Z,1011.63
2018-06-21T07:57:43.635Z,1011.66
2018-06-21T07:58:43.621Z,1011.74
2018-06-21T07:59:43.632Z,1011.62
2018-06-21T08:00:43.625Z,1011.72
2018-06-21T08:01:43.617Z,1011.77
2018-06-21T08:02:43.614Z,1011.77
2018-06-21T08:03:43.629Z,1011.84
2018-06-21T08:04:43.632Z,1011.88
2018-06-21T08:05:43.646Z,1011.87
2018-06-21T08:06:43.633Z,1011.87
2018-06-21T08:07:43.639Z,1011.88
2018-06-21T08:08:43.627Z,1011.85
2018-06-21T08:09:43.647Z,1011.90
2018-06-21T08:10:43.633Z,1011.93
2018-06-21T08:11:43.630Z,1011.91
2018-06-21T08:12:43.632Z,1011.98
2018-06-21T08:13:43.636Z,1011.98
2018-06-21T08:14:43.840Z,1012.01
2018-06-21T08:15:43.648Z,1011.99
2018-06-21T08:16:43.654Z,1012.00
2018-06-21T08:17:43.641Z,1011.99
2018-06-21T08:18:43.642Z,1012.03
2018-06-21T08:19:43.861Z,1012.06
2018-06-21T08:20:43.675Z,1012.04
2018-06-21T08:21:43.647Z,1012.04
2018-06-21T08:22:43.653Z,1012.15
2018-06-21T08:23:43.662Z,1012.11
2018-06-21T08:24:43.666Z,1012.11
2018-06-21T08:25:43.654Z,1012.17
2018-06-21T08:26:43.682Z,1012.08
2018-06-21T08:27:43.680Z,1012.21
2018-06-21T08:28:43.658Z,1012.21
2018-06-21T08:29:43.864Z,1012.20
2018-06-21T08:30:43.674Z,1012.19
2018-06-21T08:31:43.662Z,1012.23
2018-06-21T08:32:43.673Z,1012.21
2018-06-21T08:33:43.673Z,1012.20
2018-06-21T08:34:43.670Z,1012.24
2018-06-21T08:35:43.678Z,1012.25
2018-06-21T08:36:43.670Z,1012.27
2018-06-21T08:37:43.682Z,1012.24
2018-06-21T08:38:43.684Z,1012.29
2018-06-21T08:39:43.674Z,1012.27
2018-06-21T08:40:43.673Z,1012.37
2018-06-21T08:41:43.680Z,1012.37
2018-06-21T08:42:43.691Z,1012.38
2018-06-21T08:43:43.681Z,1012.41
2018-06-21T08:44:43.680Z,1012.47
2018-06-21T08:45:43.755Z,1012.43
2018-06-21T08:46:43.695Z,1012.46
2018-06-21T08:47:43.699Z,1012.52
2018-06-21T08:48:43.689Z,1012.43
2018-06-21T08:49:43.691Z,1012.51
2018-06-21T08:50:43.915Z,1012.54
2018-06-21T08:51:43.703Z,1012.53
2018-06-21T08:52:43.697Z,1012.60
2018-06-21T08:53:43.705Z,1012.72
2018-06-21T08:54:43.721Z,1012.73
2018-06-21T08:55:43.704Z,1012.67
2018-06-21T08:56:43.698Z,1012.76
2018-06-21T08:57:43.708Z,1012.71
2018-06-21T08:58:43.723Z,1012.78
2018-06-21T08:59:43.717Z,1012.77
2018-06-21T09:00:43.707Z,1012.79
2018-06-21T09:01:43.724Z,1012.80
2018-06-21T09:02:43.711Z,1012.80
2018-06-21T09:03:43.759Z,1012.83
2018-06-21T09:04:43.724Z,1012.82
2018-06-21T09:05:43.725Z,1012.86
2018-06-21T09:06:43.742Z,1012.91
2018-06-21T09:07:43.716Z,1012.98
2018-06-21T09:08:43.720Z,1012.93
2018-06-21T09:09:43.761Z,1012.96
2018-06-21T09:10:43.720Z,1012.99
2018-06-21T09:11:43.723Z,1012.94
2018-06-21T09:12:43.735Z,1012.95
2018-06-21T09:13:43.741Z,1013.00
2018-06-21T09:14:43.729Z,1012.99
2018-06-21T09:15:43.751Z,1013.00
2018-06-21T09:16:43.731Z,1013.11
2018-06-21T09:17:43.751Z,1013.13
2018-06-21T09:18:43.737Z,1013.17
2018-06-21T09:19:43.737Z,1013.23
2018-06-21T09:20:43.938Z,1013.19
2018-06-21T09:21:43.737Z,1013.18
2018-06-21T09:22:43.754Z,1013.22
2018-06-21T09:23:43.738Z,1013.18
2018-06-21T09:24:43.945Z,1013.21
2018-06-21T09:25:43.752Z,1013.15
2018-06-21T09:26:43.756Z,1013.16
2018-06-21T09:27:43.745Z,1013.13
2018-06-21T09:28:43.755Z,1013.13
2018-06-21T09:29:43.760Z,1013.17
2018-06-21T09:30:43.770Z,1013.11
2018-06-21T09:31:43.751Z,1013.24
2018-06-21T09:32:43.750Z,1013.15
2018-06-21T09:33:43.754Z,1013.17
2018-06-21T09:34:43.765Z,1013.16
2018-06-21T09:35:43.780Z,1013.21
2018-06-21T09:36:43.757Z,1013.18
2018-06-21T09:37:43.765Z,1013.15
2018-06-21T09:38:43.776Z,1013.18
2018-06-21T09:39:43.759Z,1013.30
2018-06-21T09:40:43.760Z,1013.30
2018-06-21T09:41:43.761Z,1013.38
2018-06-21T09:42:43.764Z,1013.31
2018-06-21T09:43:50.295Z,1013.38
2018-06-21T09:44:43.776Z,1013.33
2018-06-21T09:45:43.790Z,1013.39
2018-06-21T09:46:43.770Z,1013.37
2018-06-21T09:47:43.769Z,1013.37
2018-06-21T09:48:43.776Z,1013.47
2018-06-21T09:49:43.992Z,1013.41
2018-06-21T09:50:43.786Z,1013.44
2018-06-21T09:51:43.790Z,1013.49
2018-06-21T09:52:43.780Z,1013.50
2018-06-21T09:53:43.789Z,1013.45
2018-06-21T09:54:43.810Z,1013.48
2018-06-21T09:55:43.792Z,1013.40
2018-06-21T09:56:43.986Z,1013.47
2018-06-21T09:57:43.853Z,1013.49
2018-06-21T09:58:43.786Z,1013.44
2018-06-21T09:59:43.786Z,1013.50
2018-06-21T10:00:43.788Z,1013.45
2018-06-21T10:01:43.793Z,1013.47
2018-06-21T10:02:43.820Z,1013.50
2018-06-21T10:03:43.805Z,1013.52
2018-06-21T10:04:43.791Z,1013.49
2018-06-21T10:05:43.823Z,1013.50
2018-06-21T10:06:43.997Z,1013.50
2018-06-21T10:07:43.797Z,1013.51
2018-06-21T10:08:43.814Z,1013.58
2018-06-21T10:09:43.802Z,1013.52
2018-06-21T10:10:43.800Z,1013.50
2018-06-21T10:11:43.801Z,1013.56
2018-06-21T10:12:43.813Z,1013.54
2018-06-21T10:13:43.805Z,1013.52
2018-06-21T10:14:43.810Z,1013.57
2018-06-21T10:15:43.857Z,1013.64
2018-06-21T10:16:43.824Z,1013.70
2018-06-21T10:17:43.813Z,1013.69
2018-06-21T10:18:43.828Z,1013.67
2018-06-21T10:19:44.064Z,1013.77
2018-06-21T10:20:43.846Z,1013.79
2018-06-21T10:21:43.817Z,1013.78
2018-06-21T10:22:43.821Z,1013.77
2018-06-21T10:23:43.872Z,1013.73
2018-06-21T10:24:43.822Z,1013.73
2018-06-21T10:25:43.836Z,1013.80
2018-06-21T10:26:43.837Z,1013.68
2018-06-21T10:27:43.826Z,1013.69
2018-06-21T10:28:43.829Z,1013.65
2018-06-21T10:29:43.827Z,1013.69
2018-06-21T10:30:43.831Z,1013.72
2018-06-21T10:31:43.846Z,1013.74
2018-06-21T10:32:43.846Z,1013.74
2018-06-21T10:33:43.843Z,1013.78
2018-06-21T10:34:43.836Z,1013.76
2018-06-21T10:35:43.865Z,1013.81
2018-06-21T10:36:43.839Z,1013.80
2018-06-21T10:37:43.864Z,1013.84
2018-06-21T10:38:43.842Z,1013.86
2018-06-21T10:39:43.841Z,1013.85
2018-06-21T10:40:44.047Z,1013.88
2018-06-21T10:41:43.845Z,1013.90
2018-06-21T10:42:43.847Z,1013.93
2018-06-21T10:43:44.051Z,1014.01
2018-06-21T10:44:43.849Z,1013.98
2018-06-21T10:45:43.851Z,1013.95
2018-06-21T10:46:43.854Z,1013.97
2018-06-21T10:47:43.855Z,1014.11
2018-06-21T10:48:43.870Z,1014.07
2018-06-21T10:49:43.862Z,1014.06
2018-06-21T10:50:43.860Z,1014.05
2018-06-21T10:51:43.863Z,1014.10
2018-06-21T10:52:44.088Z,1014.13
2018-06-21T10:53:43.868Z,1014.05
2018-06-21T10:54:43.866Z,1014.09
2018-06-21T10:55:43.865Z,1014.19
2018-06-21T10:56:43.868Z,1014.15
2018-06-21T10:57:43.881Z,1014.22
2018-06-21T10:58:43.871Z,1014.25
2018-06-21T10:59:43.883Z,1014.16
2018-06-21T11:00:43.876Z,1014.22
2018-06-21T11:01:43.876Z,1014.24
2018-06-21T11:02:43.878Z,1014.27
2018-06-21T11:03:43.878Z,1014.23
2018-06-21T11:04:43.901Z,1014.23
2018-06-21T11:05:43.894Z,1014.24
2018-06-21T11:06:43.890Z,1014.25
2018-06-21T11:07:43.884Z,1014.25
2018-06-21T11:08:43.912Z,1014.29
2018-06-21T11:09:43.899Z,1014.26
2018-06-21T11:10:43.917Z,1014.34
2018-06-21T11:11:43.900Z,1014.36
2018-06-21T11:12:43.915Z,1014.36
2018-06-21T11:13:43.897Z,1014.27
2018-06-21T11:14:43.929Z,1014.26
2018-06-21T11:15:43.922Z,1014.23
2018-06-21T11:16:44.120Z,1014.33
2018-06-21T11:17:43.898Z,1014.34
2018-06-21T11:18:43.914Z,1014.36
2018-06-21T11:19:43.914Z,1014.39
2018-06-21T11:20:43.901Z,1014.39
2018-06-21T11:21:43.900Z,1014.51
2018-06-21T11:22:43.905Z,1014.50
2018-06-21T11:23:43.903Z,1014.51
2018-06-21T11:24:43.904Z,1014.55
2018-06-21T11:25:43.908Z,1014.51
2018-06-21T11:26:44.115Z,1014.59
2018-06-21T11:27:43.942Z,1014.51
2018-06-21T11:28:43.927Z,1014.57
2018-06-21T11:29:43.912Z,1014.63
2018-06-21T11:30:43.941Z,1014.56
2018-06-21T11:31:43.943Z,1014.56
2018-06-21T11:32:43.921Z,1014.54
2018-06-21T11:33:43.932Z,1014.62
2018-06-21T11:34:43.936Z,1014.58
2018-06-21T11:35:43.935Z,1014.57
2018-06-21T11:36:43.926Z,1014.57
2018-06-21T11:37:43.932Z,1014.52
2018-06-21T11:38:43.928Z,1014.62
2018-06-21T11:39:43.930Z,1014.60
2018-06-21T11:40:44.128Z,1014.62
2018-06-21T11:41:43.929Z,1014.63
2018-06-21T11:42:44.130Z,1014.59
2018-06-21T11:43:43.954Z,1014.53
2018-06-21T11:44:43.951Z,1014.64
2018-06-21T11:45:43.935Z,1014.68
2018-06-21T11:46:43.987Z,1014.68
2018-06-21T11:47:43.955Z,1014.73
2018-06-21T11:48:43.937Z,1014.76
2018-06-21T11:49:43.964Z,1014.75
2018-06-21T11:50:43.947Z,1014.75
2018-06-21T11:51:43.956Z,1014.72
2018-06-21T11:52:43.945Z,1014.75
2018-06-21T11:53:43.945Z,1014.75
2018-06-21T11:54:43.958Z,1014.73
2018-06-21T11:55:44.164Z,1014.75
2018-06-21T11:56:43.983Z,1014.74
2018-06-21T11:57:43.956Z,1014.77
2018-06-21T11:58:43.955Z,1014.82
2018-06-21T11:59:44.160Z,1014.83
2018-06-21T12:00:43.969Z,1014.83
2018-06-21T12:01:43.983Z,1014.79
2018-06-21T12:02:43.962Z,1014.79
2018-06-21T12:03:43.961Z,1014.77
2018-06-21T12:04:44.176Z,1014.81
2018-06-21T12:05:43.964Z,1014.81